Burnaby, British Columbia

11:23 AM PDT on September 02, 2015 (GMT -0700)
Burnaby Mountain | | Change Station
CLOSE
Current Station
Personal Weather Station
Location: Burnaby, BC
Elevation: 459 ft
Nearby Weather Stations

Elev 459 ft 49.28 °N, 122.95 °W | Updated 17 seconds ago

Mostly Cloudy
Mostly Cloudy
55.9 °F
Feels Like 55.9 °F
N
1.0
Wind Variable Wind from SSW
Gusts 3.0 mph

Today
High -- | Low -- °F
--% Chance of Precip.
Yesterday
High -- | Low -- °F
Precip. -- in
6:29 AM 7:52 PM
Waning Gibbous, 78% visible
Pressure 29.87 in
Visibility 15.0 miles
Clouds Few 1500 ft
Scattered Clouds 2200 ft
Mostly Cloudy 6100 ft
Mostly Cloudy 8500 ft
Dew Point 53 °F
Humidity 91%
Rainfall 0.05 in
Snow Depth Not available.
UV 3 out of 12
Pollen Not available.
Air Quality Not available.
Flu Activity Not available.
METAR CYVR 021800Z 12008KT 15SM FEW015 SCT022 BKN061 BKN085 15/09 A2987 RMK CU1SC2SC3AC1 TCU TOP N SLP115
Pressure 29.87 in
Visibility 15.0 miles
Clouds Few 1500 ft
Scattered Clouds 2200 ft
Mostly Cloudy 6100 ft
Mostly Cloudy 8500 ft
Dew Point 53 °F
Humidity 91%
Rainfall 0.05 in
Snow Depth Not available.
UV 3 out of 12
Pollen Not available.
Air Quality Not available.
Flu Activity Not available.
METAR CYVR 021800Z 12008KT 15SM FEW015 SCT022 BKN061 BKN085 15/09 A2987 RMK CU1SC2SC3AC1 TCU TOP N SLP115

10-Day Weather Forecast

×

Almanac

Astronomy

Sep. 02, 2015 Rise Set
Actual Time
Civil Twilight
Nautical Twilight
Astronomical Twilight
Moon
Length of Visible Light
Length of Day
Tomorrow will be .
, % of the Moon is Illuminated

Today's Extremes

Country Highs Country Lows

Community

WunderPhotos

Upload Photos

1,851,791 photos uploaded!

WunderBlogs® & News

Nearby

Air Quality

  Air Quality AQ Index Pollutant
Not available.

Snow Depth

Station Depth Elevation

Earthquake Activity

City Distance Mag. Time & Date
Minimum magnitude displayed is 2.5.

Coastal Water Temperatures

Place Temperature

Stations

Nearby Weather Stations

Station Location Temp. Windchill Dew Point Humidity Wind Precip. Elev Updated Type